createdAt,value
2023-03-19T00:00:29.257Z,2.10
2023-03-19T00:02:56.480Z,2.10
2023-03-19T00:05:23.355Z,2.05
2023-03-19T00:07:50.146Z,1.90
2023-03-19T00:10:17.314Z,1.92
2023-03-19T00:12:44.217Z,2.35
2023-03-19T00:15:14.438Z,2.22
2023-03-19T00:17:42.919Z,1.65
2023-03-19T00:20:11.406Z,2.00
2023-03-19T00:22:38.273Z,1.80
2023-03-19T00:25:05.590Z,1.50
2023-03-19T00:27:32.389Z,2.22
2023-03-19T00:29:59.292Z,1.77
2023-03-19T00:32:26.559Z,1.92
2023-03-19T00:34:53.436Z,2.38
2023-03-19T00:37:20.276Z,1.90
2023-03-19T00:39:47.601Z,2.00
2023-03-19T00:42:14.781Z,2.22
2023-03-19T00:44:41.933Z,2.65
2023-03-19T00:47:08.891Z,2.10
2023-03-19T00:49:35.967Z,2.60
2023-03-19T00:52:02.811Z,2.33
2023-03-19T00:54:29.614Z,2.00
2023-03-19T00:56:56.986Z,2.45
2023-03-19T00:59:25.429Z,2.55
2023-03-19T01:01:52.616Z,2.40
2023-03-19T01:04:20.361Z,2.42
2023-03-19T01:06:48.118Z,2.88
2023-03-19T01:09:15.109Z,2.35
2023-03-19T01:11:42.088Z,2.15
2023-03-19T01:14:09.578Z,2.25
2023-03-19T01:16:36.707Z,2.47
2023-03-19T01:19:04.304Z,2.22
2023-03-19T01:21:31.495Z,2.70
2023-03-19T01:23:58.801Z,2.22
2023-03-19T01:26:27.432Z,2.45
2023-03-19T01:28:59.418Z,2.80
2023-03-19T01:31:27.305Z,2.55
2023-03-19T01:34:23.164Z,2.50
2023-03-19T01:36:55.266Z,2.15
2023-03-19T01:39:28.758Z,2.65
2023-03-19T01:41:56.290Z,2.20
2023-03-19T01:44:40.443Z,2.40
2023-03-19T01:47:35.025Z,2.28
2023-03-19T01:50:47.632Z,2.37
2023-03-19T01:53:27.978Z,2.20
2023-03-19T01:56:07.111Z,2.10
2023-03-19T01:58:55.066Z,2.17
2023-03-19T02:01:48.351Z,2.42
2023-03-19T02:04:15.414Z,2.25
2023-03-19T02:06:42.959Z,2.13
2023-03-19T02:09:10.023Z,2.47
2023-03-19T02:11:37.742Z,2.33
2023-03-19T02:14:04.562Z,2.20
2023-03-19T02:16:31.944Z,1.98
2023-03-19T02:18:59.166Z,3.28
2023-03-19T02:21:26.213Z,2.55
2023-03-19T02:24:19.723Z,2.13
2023-03-19T02:27:13.071Z,2.10
2023-03-19T02:29:45.050Z,2.50
2023-03-19T02:32:12.885Z,2.08
2023-03-19T02:34:41.009Z,2.15
2023-03-19T02:37:13.404Z,2.20
2023-03-19T02:39:43.559Z,2.10
2023-03-19T02:42:11.850Z,2.33
2023-03-19T02:44:38.815Z,2.22
2023-03-19T02:47:06.272Z,2.13
2023-03-19T02:49:33.152Z,2.20
2023-03-19T02:51:59.999Z,1.65
2023-03-19T02:54:27.255Z,1.60
2023-03-19T02:56:54.153Z,2.38
2023-03-19T02:59:21.317Z,1.92
2023-03-19T03:01:48.634Z,2.00
2023-03-19T03:04:16.713Z,1.90
2023-03-19T03:06:44.435Z,1.58
2023-03-19T03:09:12.754Z,1.77
2023-03-19T03:11:41.699Z,1.55
2023-03-19T03:14:09.379Z,1.75
2023-03-19T03:16:37.783Z,1.90
2023-03-19T03:19:05.112Z,1.45
2023-03-19T03:21:34.359Z,1.70
2023-03-19T03:24:02.392Z,1.70
2023-03-19T03:26:29.285Z,1.92
2023-03-19T03:28:56.132Z,1.45
2023-03-19T03:31:23.342Z,1.48
2023-03-19T03:33:50.462Z,1.50
2023-03-19T03:36:17.667Z,1.73
2023-03-19T03:38:45.292Z,1.90
2023-03-19T03:41:12.822Z,1.50
2023-03-19T03:43:41.103Z,1.40
2023-03-19T03:46:08.794Z,1.40
2023-03-19T03:48:35.884Z,1.20
2023-03-19T03:51:03.383Z,1.50
2023-03-19T03:53:31.469Z,1.23
2023-03-19T03:55:58.869Z,1.70
2023-03-19T03:58:28.006Z,1.60
2023-03-19T04:00:55.523Z,1.00
2023-03-19T04:03:24.394Z,1.60
2023-03-19T04:05:52.214Z,1.38
2023-03-19T04:08:20.714Z,1.15
2023-03-19T04:10:47.871Z,1.15
2023-03-19T04:13:15.244Z,1.70
2023-03-19T04:15:43.237Z,1.50
2023-03-19T04:18:11.241Z,1.55
2023-03-19T04:20:38.178Z,1.17
2023-03-19T04:23:05.050Z,1.40
2023-03-19T04:25:31.897Z,1.30
2023-03-19T04:27:59.110Z,1.50
2023-03-19T04:30:29.062Z,1.42
2023-03-19T04:32:56.761Z,1.23
2023-03-19T04:35:23.930Z,1.10
2023-03-19T04:37:50.903Z,1.20
2023-03-19T04:40:20.564Z,1.42
2023-03-19T04:42:48.586Z,1.45
2023-03-19T04:45:29.500Z,1.50
2023-03-19T04:47:56.837Z,1.50
2023-03-19T04:50:24.213Z,1.67
2023-03-19T04:52:51.380Z,1.52
2023-03-19T04:55:18.667Z,1.67
2023-03-19T04:57:53.419Z,1.40
2023-03-19T05:00:23.431Z,1.50
2023-03-19T05:02:50.306Z,1.70
2023-03-19T05:05:17.344Z,1.02
2023-03-19T05:07:44.607Z,1.02
2023-03-19T05:10:11.961Z,1.90
2023-03-19T05:12:39.038Z,1.30
2023-03-19T05:15:07.890Z,1.60
2023-03-19T05:17:53.831Z,1.27
2023-03-19T05:20:29.947Z,1.40
2023-03-19T05:25:44.071Z,1.40
2023-03-19T05:28:14.598Z,1.67
2023-03-19T05:30:43.257Z,1.48
2023-03-19T05:33:18.003Z,1.27
2023-03-19T05:35:45.972Z,1.30
2023-03-19T05:38:22.204Z,1.70
2023-03-19T05:40:56.191Z,1.83
2023-03-19T05:43:30.056Z,1.13
2023-03-19T05:45:58.099Z,1.70
2023-03-19T05:48:29.315Z,1.45
2023-03-19T05:50:56.727Z,1.42
2023-03-19T05:53:24.810Z,1.50
2023-03-19T05:56:11.768Z,1.70
2023-03-19T05:58:51.380Z,3.42
2023-03-19T06:01:23.120Z,1.65
2023-03-19T06:03:50.572Z,1.23
2023-03-19T06:06:17.534Z,1.77
2023-03-19T06:08:45.988Z,1.73
2023-03-19T06:11:20.055Z,1.30
2023-03-19T06:16:20.978Z,15.15
2023-03-19T06:18:52.055Z,2.00
2023-03-19T06:21:19.676Z,1.85
2023-03-19T06:23:46.572Z,1.70
2023-03-19T06:26:17.940Z,1.67
2023-03-19T06:31:18.828Z,1.88
2023-03-19T06:34:01.607Z,1.50
2023-03-19T06:36:39.238Z,1.70
2023-03-19T06:39:09.303Z,1.65
2023-03-19T06:41:37.256Z,1.65
2023-03-19T06:44:19.239Z,1.20
2023-03-19T06:46:46.220Z,1.98
2023-03-19T06:49:13.063Z,1.67
2023-03-19T06:51:40.055Z,1.80
2023-03-19T06:54:07.049Z,1.75
2023-03-19T06:56:33.905Z,1.90
2023-03-19T06:59:00.935Z,1.63
2023-03-19T07:01:27.817Z,1.60
2023-03-19T07:03:55.409Z,1.35
2023-03-19T07:06:22.269Z,1.38
2023-03-19T07:08:49.118Z,1.63
2023-03-19T07:11:16.641Z,1.73
2023-03-19T07:13:43.498Z,2.00
2023-03-19T07:16:10.496Z,1.20
2023-03-19T07:18:37.355Z,1.38
2023-03-19T07:21:04.434Z,1.58
2023-03-19T07:23:31.607Z,2.00
2023-03-19T07:25:58.674Z,1.98
2023-03-19T07:28:25.660Z,1.52
2023-03-19T07:30:53.392Z,2.00
2023-03-19T07:33:21.077Z,1.50
2023-03-19T07:35:48.155Z,1.55
2023-03-19T07:38:15.090Z,1.70
2023-03-19T07:40:51.420Z,1.77
2023-03-19T07:43:26.159Z,1.90
2023-03-19T07:45:53.266Z,1.77
2023-03-19T07:48:20.106Z,1.95
2023-03-19T07:50:47.077Z,2.17
2023-03-19T07:53:13.893Z,2.20
2023-03-19T07:55:40.794Z,2.40
2023-03-19T07:58:07.586Z,1.83
2023-03-19T08:00:34.588Z,2.22
2023-03-19T08:03:01.626Z,2.40
2023-03-19T08:05:28.620Z,2.53
2023-03-19T08:07:55.627Z,3.00
2023-03-19T08:10:22.666Z,2.30
2023-03-19T08:12:49.458Z,2.42
2023-03-19T08:15:16.562Z,2.58
2023-03-19T08:17:43.379Z,3.33
2023-03-19T08:20:16.702Z,2.50
2023-03-19T08:22:43.811Z,2.65
2023-03-19T08:25:10.882Z,2.60
2023-03-19T08:27:37.909Z,2.67
2023-03-19T08:30:06.359Z,2.65
2023-03-19T08:32:33.188Z,2.55
2023-03-19T08:35:00.401Z,2.58
2023-03-19T08:37:27.216Z,2.42
2023-03-19T08:39:54.016Z,2.80
2023-03-19T08:42:21.528Z,2.80
2023-03-19T08:44:48.826Z,3.05
2023-03-19T08:47:15.853Z,2.90
2023-03-19T08:49:42.793Z,2.60
2023-03-19T08:52:09.814Z,2.47
2023-03-19T08:54:36.985Z,2.75
2023-03-19T08:57:03.957Z,3.03
2023-03-19T08:59:33.765Z,2.70
2023-03-19T09:02:01.680Z,2.67
2023-03-19T09:04:28.775Z,2.50
2023-03-19T09:06:55.932Z,2.60
2023-03-19T09:09:23.580Z,2.55
2023-03-19T09:11:50.518Z,2.50
2023-03-19T09:14:19.919Z,2.63
2023-03-19T09:16:46.876Z,2.40
2023-03-19T09:19:13.738Z,2.80
2023-03-19T09:21:40.690Z,2.95
2023-03-19T09:24:07.610Z,2.80
2023-03-19T09:26:34.552Z,2.70
2023-03-19T09:29:02.194Z,2.30
2023-03-19T09:31:29.846Z,2.67
2023-03-19T09:33:56.956Z,2.90
2023-03-19T09:36:23.948Z,2.90
2023-03-19T09:38:50.739Z,2.85
2023-03-19T09:41:21.033Z,2.47
2023-03-19T09:44:10.726Z,2.90
2023-03-19T09:46:53.777Z,2.67
2023-03-19T09:49:38.468Z,2.80
2023-03-19T09:52:27.422Z,2.67
2023-03-19T09:54:54.991Z,2.85
2023-03-19T09:57:21.847Z,2.75
2023-03-19T09:59:49.207Z,3.10
2023-03-19T10:02:22.325Z,2.80
2023-03-19T10:05:15.684Z,3.03
2023-03-19T10:08:01.451Z,2.67
2023-03-19T10:10:28.294Z,2.42
2023-03-19T10:13:07.453Z,3.45
2023-03-19T10:15:35.333Z,3.15
2023-03-19T10:18:06.269Z,2.80
2023-03-19T10:21:01.161Z,2.75
2023-03-19T10:23:59.402Z,3.10
2023-03-19T10:26:36.960Z,2.90
2023-03-19T10:29:16.484Z,3.53
2023-03-19T10:31:49.368Z,3.13
2023-03-19T10:34:34.841Z,2.40
2023-03-19T10:37:06.617Z,3.10
2023-03-19T10:39:34.830Z,2.70
2023-03-19T10:42:27.051Z,2.75
2023-03-19T10:45:09.049Z,3.30
2023-03-19T10:47:39.122Z,2.97
2023-03-19T10:50:07.005Z,2.65
2023-03-19T10:52:37.158Z,3.97
2023-03-19T10:55:15.573Z,3.17
2023-03-19T10:57:43.483Z,3.03
2023-03-19T11:00:19.574Z,3.42
2023-03-19T11:02:53.898Z,3.30
2023-03-19T11:05:31.227Z,3.13
2023-03-19T11:08:03.791Z,2.88
2023-03-19T11:10:32.100Z,3.15
2023-03-19T11:13:06.168Z,3.20
2023-03-19T11:15:37.687Z,2.78
2023-03-19T11:18:17.034Z,3.05
2023-03-19T11:20:43.907Z,3.58
2023-03-19T11:23:36.943Z,3.38
2023-03-19T11:26:04.379Z,3.30
2023-03-19T11:28:34.188Z,2.75
2023-03-19T11:31:21.718Z,3.05
2023-03-19T11:33:57.646Z,3.15
2023-03-19T11:36:24.461Z,2.58
2023-03-19T11:39:30.510Z,2.90
2023-03-19T11:42:19.967Z,3.05
2023-03-19T11:44:59.232Z,2.35
2023-03-19T11:48:03.665Z,2.53
2023-03-19T11:50:36.148Z,2.35
2023-03-19T11:53:06.894Z,2.67
2023-03-19T11:55:56.572Z,2.95
2023-03-19T11:58:35.163Z,3.10
2023-03-19T12:01:16.145Z,2.95
2023-03-19T12:03:51.985Z,2.72
2023-03-19T12:06:36.930Z,2.60
2023-03-19T12:09:14.498Z,3.22
2023-03-19T12:11:54.634Z,2.78
2023-03-19T12:14:49.859Z,2.95
2023-03-19T12:17:55.333Z,2.70
2023-03-19T12:20:59.527Z,2.90
2023-03-19T12:26:04.732Z,4.03
2023-03-19T12:28:39.584Z,3.25
2023-03-19T12:31:15.528Z,2.85
2023-03-19T12:33:47.772Z,3.08
2023-03-19T12:36:23.994Z,3.50
2023-03-19T12:39:11.220Z,3.55
2023-03-19T12:41:41.653Z,3.35
2023-03-19T12:44:24.512Z,3.15
2023-03-19T12:46:59.265Z,3.10
2023-03-19T12:49:38.278Z,3.15
2023-03-19T12:52:27.376Z,2.58
2023-03-19T12:55:04.536Z,3.97
2023-03-19T12:57:32.667Z,2.72
2023-03-19T13:00:14.040Z,2.55
2023-03-19T13:03:03.695Z,3.50
2023-03-19T13:05:39.507Z,3.00
2023-03-19T13:08:16.924Z,3.70
2023-03-19T13:10:43.808Z,3.25
2023-03-19T13:13:18.715Z,3.08
2023-03-19T13:15:47.931Z,3.70
2023-03-19T13:18:26.130Z,3.30
2023-03-19T13:21:11.732Z,3.72
2023-03-19T13:23:39.054Z,4.28
2023-03-19T13:26:08.104Z,3.60
2023-03-19T13:28:36.673Z,3.35
2023-03-19T13:31:08.217Z,3.47
2023-03-19T13:33:35.293Z,3.50
2023-03-19T13:36:05.379Z,3.40
2023-03-19T13:38:44.230Z,2.90
2023-03-19T13:41:42.489Z,2.55
2023-03-19T13:44:18.953Z,3.47
2023-03-19T13:46:46.096Z,2.85
2023-03-19T13:49:28.705Z,3.13
2023-03-19T13:51:58.437Z,3.05
2023-03-19T13:54:38.945Z,2.65
2023-03-19T13:57:18.629Z,2.42
2023-03-19T13:59:47.416Z,2.20
2023-03-19T14:02:23.065Z,2.67
2023-03-19T14:05:02.209Z,2.47
2023-03-19T14:07:40.468Z,2.50
2023-03-19T14:10:09.481Z,2.67
2023-03-19T14:12:40.665Z,2.95
2023-03-19T14:15:10.502Z,2.67
2023-03-19T14:18:01.666Z,2.70
2023-03-19T14:20:47.762Z,2.80
2023-03-19T14:23:26.946Z,3.60
2023-03-19T14:26:16.603Z,2.97
2023-03-19T14:28:49.686Z,3.20
2023-03-19T14:31:44.094Z,3.28
2023-03-19T14:34:18.544Z,2.50
2023-03-19T14:37:28.728Z,2.25
2023-03-19T14:40:02.891Z,2.15
2023-03-19T14:42:40.673Z,2.90
2023-03-19T14:45:14.641Z,2.58
2023-03-19T14:47:44.597Z,2.28
2023-03-19T14:50:36.144Z,2.90
2023-03-19T14:53:19.666Z,2.40
2023-03-19T14:55:51.267Z,2.42
2023-03-19T14:58:19.650Z,2.55
2023-03-19T15:00:49.186Z,2.60
2023-03-19T15:03:23.685Z,2.88
2023-03-19T15:05:50.812Z,2.03
2023-03-19T15:08:22.304Z,2.00
2023-03-19T15:11:14.454Z,2.00
2023-03-19T15:13:48.144Z,2.17
2023-03-19T15:16:37.842Z,2.42
2023-03-19T15:19:10.962Z,2.15
2023-03-19T15:21:38.568Z,2.03
2023-03-19T15:24:07.280Z,2.28
2023-03-19T15:26:36.298Z,1.77
2023-03-19T15:29:04.459Z,2.08
2023-03-19T15:31:54.054Z,2.00
2023-03-19T15:34:33.134Z,2.00
2023-03-19T15:37:10.470Z,1.85
2023-03-19T15:39:45.394Z,1.60
2023-03-19T15:42:13.068Z,1.48
2023-03-19T15:44:46.533Z,1.98
2023-03-19T15:50:12.012Z,1.85
2023-03-19T15:52:41.229Z,1.42
2023-03-19T15:55:08.704Z,1.48
2023-03-19T15:57:36.468Z,1.83
2023-03-19T16:00:04.473Z,1.70
2023-03-19T16:02:43.555Z,1.58
2023-03-19T16:05:27.368Z,1.85
2023-03-19T16:10:38.621Z,1.63
2023-03-19T16:13:24.204Z,1.60
2023-03-19T16:16:00.847Z,1.58
2023-03-19T16:18:29.861Z,1.50
2023-03-19T16:21:36.420Z,1.60
2023-03-19T16:24:18.349Z,1.83
2023-03-19T16:26:46.585Z,2.13
2023-03-19T16:29:47.008Z,2.15
2023-03-19T16:32:25.078Z,1.90
2023-03-19T16:35:03.883Z,2.13
2023-03-19T16:37:49.317Z,1.85
2023-03-19T16:40:20.656Z,1.55
2023-03-19T16:42:52.473Z,1.88
2023-03-19T16:45:28.745Z,1.60
2023-03-19T16:48:00.076Z,1.50
2023-03-19T16:50:36.931Z,1.80
2023-03-19T16:53:05.664Z,1.65
2023-03-19T16:55:34.809Z,2.00
2023-03-19T16:58:11.345Z,2.00
2023-03-19T17:00:38.536Z,1.55
2023-03-19T17:03:11.186Z,1.83
2023-03-19T17:05:38.034Z,2.00
2023-03-19T17:08:05.011Z,1.83
2023-03-19T17:10:32.413Z,1.60
2023-03-19T17:12:59.327Z,1.80
2023-03-19T17:15:30.183Z,1.77
2023-03-19T17:17:57.409Z,1.80
2023-03-19T17:20:28.134Z,2.00
2023-03-19T17:22:54.970Z,1.90
2023-03-19T17:25:22.110Z,1.40
2023-03-19T17:27:49.107Z,2.25
2023-03-19T17:30:16.164Z,1.95
2023-03-19T17:32:45.917Z,1.90
2023-03-19T17:35:17.437Z,2.08
2023-03-19T17:37:44.569Z,2.05
2023-03-19T17:40:31.917Z,2.03
2023-03-19T17:42:59.103Z,1.80
2023-03-19T17:45:28.756Z,1.75
2023-03-19T17:47:58.985Z,3.25
2023-03-19T17:50:27.158Z,1.90
2023-03-19T17:52:53.987Z,1.88
2023-03-19T17:55:21.827Z,2.30
2023-03-19T17:57:51.711Z,2.20
2023-03-19T18:00:19.741Z,2.10
2023-03-19T18:02:46.998Z,2.05
2023-03-19T18:05:15.501Z,2.72
2023-03-19T18:07:43.177Z,2.40
2023-03-19T18:10:15.290Z,2.20
2023-03-19T18:12:42.155Z,1.50
2023-03-19T18:15:09.472Z,1.30
2023-03-19T18:17:36.350Z,1.23
2023-03-19T18:20:04.382Z,0.80
2023-03-19T18:22:31.357Z,0.77
2023-03-19T18:24:58.250Z,0.90
2023-03-19T18:27:25.255Z,0.82
2023-03-19T18:29:52.085Z,0.93
2023-03-19T18:32:26.621Z,0.88
2023-03-19T18:34:53.516Z,0.80
2023-03-19T18:37:20.426Z,0.90
2023-03-19T18:39:47.311Z,0.90
2023-03-19T18:42:15.238Z,0.95
2023-03-19T18:44:43.220Z,1.40
2023-03-19T18:47:14.702Z,1.00
2023-03-19T18:49:41.645Z,0.70
2023-03-19T18:52:13.032Z,0.57
2023-03-19T18:54:40.020Z,0.93
2023-03-19T18:57:10.932Z,0.80
2023-03-19T18:59:37.825Z,0.90
2023-03-19T19:02:30.479Z,0.90
2023-03-19T19:04:57.316Z,0.82
2023-03-19T19:07:24.185Z,0.60
2023-03-19T19:09:51.040Z,0.85
2023-03-19T19:12:18.607Z,2.38
2023-03-19T19:14:45.721Z,0.68
2023-03-19T19:17:24.117Z,0.77
2023-03-19T19:19:51.107Z,0.80
2023-03-19T19:22:18.185Z,0.70
2023-03-19T19:24:45.299Z,0.50
2023-03-19T19:27:22.015Z,0.70
2023-03-19T19:29:49.116Z,0.75
2023-03-19T19:32:25.070Z,0.40
2023-03-19T19:34:52.556Z,1.05
2023-03-19T19:37:19.723Z,0.73
2023-03-19T19:39:46.824Z,0.73
2023-03-19T19:42:14.688Z,0.80
2023-03-19T19:44:41.854Z,0.70
2023-03-19T19:47:15.766Z,0.70
2023-03-19T19:49:43.492Z,0.63
2023-03-19T19:52:17.679Z,0.77
2023-03-19T19:54:45.668Z,0.82
2023-03-19T19:57:21.413Z,0.70
2023-03-19T19:59:48.947Z,0.90
2023-03-19T20:02:26.617Z,0.63
2023-03-19T20:04:53.805Z,0.70
2023-03-19T20:07:20.949Z,0.60
2023-03-19T20:09:48.146Z,0.70
2023-03-19T20:12:20.819Z,0.80
2023-03-19T20:14:47.758Z,0.70
2023-03-19T20:17:16.229Z,0.70
2023-03-19T20:19:43.898Z,0.80
2023-03-19T20:22:11.193Z,0.88
2023-03-19T20:24:38.348Z,0.75
2023-03-19T20:27:25.656Z,0.80
2023-03-19T20:29:53.848Z,0.82
2023-03-19T20:32:36.041Z,1.40
2023-03-19T20:35:04.264Z,2.40
2023-03-19T20:37:31.393Z,0.88
2023-03-19T20:39:58.495Z,0.93
2023-03-19T20:42:26.067Z,0.60
2023-03-19T20:44:54.741Z,0.60
2023-03-19T20:47:21.686Z,0.80
2023-03-19T20:49:48.676Z,0.90
2023-03-19T20:52:16.462Z,0.70
2023-03-19T20:54:43.527Z,0.68
2023-03-19T20:57:18.324Z,0.60
2023-03-19T20:59:46.819Z,0.60
2023-03-19T21:02:18.204Z,0.70
2023-03-19T21:04:45.715Z,0.60
2023-03-19T21:07:22.868Z,0.70
2023-03-19T21:09:49.797Z,0.70
2023-03-19T21:12:29.194Z,0.55
2023-03-19T21:14:57.462Z,0.32
2023-03-19T21:17:25.052Z,0.50
2023-03-19T21:19:51.858Z,0.57
2023-03-19T21:22:22.293Z,0.50
2023-03-19T21:24:49.648Z,0.50
2023-03-19T21:27:21.640Z,0.30
2023-03-19T21:29:48.723Z,0.40
2023-03-19T21:32:18.405Z,0.55
2023-03-19T21:34:49.022Z,0.40
2023-03-19T21:37:19.077Z,0.70
2023-03-19T21:39:46.360Z,0.30
2023-03-19T21:42:18.009Z,0.57
2023-03-19T21:44:45.910Z,0.60
2023-03-19T21:47:19.004Z,0.70
2023-03-19T21:49:45.887Z,0.38
2023-03-19T21:52:19.003Z,0.60
2023-03-19T21:54:45.933Z,0.50
2023-03-19T21:57:13.630Z,0.55
2023-03-19T21:59:40.765Z,0.47
2023-03-19T22:02:22.500Z,0.40
2023-03-19T22:04:49.417Z,1.23
2023-03-19T22:07:16.258Z,0.50
2023-03-19T22:09:43.744Z,0.80
2023-03-19T22:12:32.256Z,0.50
2023-03-19T22:14:59.100Z,0.70
2023-03-19T22:17:26.046Z,0.50
2023-03-19T22:19:52.945Z,0.45
2023-03-19T22:22:19.787Z,0.55
2023-03-19T22:24:46.588Z,0.50
2023-03-19T22:27:16.186Z,0.50
2023-03-19T22:29:43.662Z,0.50
2023-03-19T22:32:17.481Z,0.50
2023-03-19T22:34:44.641Z,0.50
2023-03-19T22:37:26.395Z,0.50
2023-03-19T22:39:53.619Z,0.50
2023-03-19T22:42:20.505Z,0.60
2023-03-19T22:44:48.933Z,0.60
2023-03-19T22:47:22.776Z,0.75
2023-03-19T22:49:49.995Z,4.50
2023-03-19T22:52:16.784Z,1.17
2023-03-19T22:54:43.714Z,0.60
2023-03-19T22:57:12.770Z,0.88
2023-03-19T22:59:39.643Z,0.60
2023-03-19T23:02:06.864Z,0.70
2023-03-19T23:04:33.807Z,0.60
2023-03-19T23:07:00.839Z,0.57
2023-03-19T23:09:32.225Z,0.70
2023-03-19T23:11:59.419Z,0.60
2023-03-19T23:14:30.211Z,0.80
2023-03-19T23:17:03.584Z,0.57
2023-03-19T23:19:32.176Z,0.95
2023-03-19T23:21:59.216Z,0.95
2023-03-19T23:24:26.629Z,0.70
2023-03-19T23:26:54.309Z,0.57
2023-03-19T23:29:40.985Z,1.10
2023-03-19T23:32:12.613Z,0.70
2023-03-19T23:34:54.052Z,0.80
2023-03-19T23:37:24.918Z,0.60
2023-03-19T23:39:51.931Z,0.50
2023-03-19T23:42:27.623Z,0.75
2023-03-19T23:44:54.496Z,0.77
2023-03-19T23:47:21.525Z,0.60
2023-03-19T23:49:48.371Z,0.60
2023-03-19T23:52:15.224Z,0.73
2023-03-19T23:54:42.408Z,0.50
2023-03-19T23:57:13.048Z,0.68
2023-03-19T23:59:41.231Z,0.88
